Time;durP1;ratioP1;P1;durP2;ratioP2;P2;SDS_P1;SDS_P2;PMS_P1;PMS_P2;Temp;Humidity;BMP_temperature;BMP_pressure;BME280_temperature;BME280_humidity;BME280_pressure;Samples;Min_cycle;Max_cycle;Signal;HPM_P1;HPM_P2
2023/05/28 00:00:56;;;;;;;2.00;1.10;;;29.40;99.90;;;;;;5055389;28;20072;-46
2023/05/28 00:03:25;;;;;;;2.80;1.55;;;29.30;99.90;;;;;;5061379;28;20084;-46
2023/05/28 00:05:51;;;;;;;2.65;1.02;;;29.30;99.90;;;;;;5060806;28;20103;-42
2023/05/28 00:08:18;;;;;;;3.88;2.80;;;29.30;99.90;;;;;;5058812;28;20036;-44
2023/05/28 00:10:44;;;;;;;4.97;3.35;;;29.40;99.90;;;;;;5059283;28;20099;-49
2023/05/28 00:13:11;;;;;;;5.97;2.20;;;29.50;99.90;;;;;;5057136;28;20021;-47
2023/05/28 00:15:37;;;;;;;2.35;1.48;;;29.50;99.90;;;;;;5048878;28;20096;-43
2023/05/28 00:18:04;;;;;;;6.72;4.32;;;29.50;99.90;;;;;;5046476;28;20017;-48
2023/05/28 00:20:31;;;;;;;7.28;3.25;;;29.40;99.90;;;;;;5061740;28;20045;-43
2023/05/28 00:22:58;;;;;;;3.97;3.22;;;29.40;99.90;;;;;;5054568;28;20025;-49
2023/05/28 00:25:24;;;;;;;8.15;7.03;;;29.50;99.90;;;;;;5046469;28;20021;-49
2023/05/28 00:27:51;;;;;;;12.88;10.35;;;29.50;99.90;;;;;;5046225;28;20096;-44
2023/05/28 00:30:17;;;;;;;8.15;7.30;;;29.60;99.90;;;;;;5045810;28;20029;-44
2023/05/28 00:32:44;;;;;;;15.40;13.90;;;29.50;99.90;;;;;;5045985;28;20017;-42
2023/05/28 00:35:10;;;;;;;7.22;5.13;;;29.60;99.90;;;;;;5046216;28;20034;-51
2023/05/28 00:37:37;;;;;;;7.03;3.75;;;29.50;99.90;;;;;;5045808;28;20096;-45
2023/05/28 00:40:03;;;;;;;2.35;1.58;;;29.50;99.90;;;;;;5046349;28;20029;-51
2023/05/28 00:42:31;;;;;;;4.32;1.15;;;29.40;99.90;;;;;;5045962;28;20048;-45
2023/05/28 00:44:58;;;;;;;2.35;1.35;;;29.40;99.90;;;;;;5053265;28;20313;-50
2023/05/28 00:47:25;;;;;;;3.22;1.33;;;29.50;99.90;;;;;;5055600;28;20033;-48
2023/05/28 00:49:55;;;;;;;2.25;0.73;;;29.50;99.90;;;;;;5065788;28;20029;-48
2023/05/28 00:52:25;;;;;;;1.70;0.65;;;29.50;99.90;;;;;;5056779;28;20017;-43
2023/05/28 00:54:52;;;;;;;1.83;0.60;;;29.50;99.90;;;;;;5050524;28;20318;-51
2023/05/28 00:57:21;;;;;;;2.58;1.70;;;29.60;99.90;;;;;;5056108;28;20045;-42
2023/05/28 00:59:48;;;;;;;2.60;1.17;;;29.50;99.90;;;;;;5045202;28;20230;-42
2023/05/28 01:02:15;;;;;;;5.75;2.92;;;29.50;99.90;;;;;;5048924;28;20044;-47
2023/05/28 01:04:42;;;;;;;5.53;4.93;;;29.40;99.90;;;;;;5054179;28;20075;-45
2023/05/28 01:07:08;;;;;;;5.30;2.30;;;29.30;99.90;;;;;;5055171;28;20093;-47
2023/05/28 01:09:37;;;;;;;5.90;1.85;;;29.30;99.90;;;;;;5056147;28;20084;-46
2023/05/28 01:12:06;;;;;;;4.70;1.00;;;29.30;99.90;;;;;;5054724;28;20033;-45
2023/05/28 01:14:37;;;;;;;1.27;0.82;;;29.30;99.90;;;;;;5054043;28;20021;-43
2023/05/28 01:17:05;;;;;;;4.38;2.60;;;29.30;99.90;;;;;;5053564;28;20164;-45
2023/05/28 01:19:31;;;;;;;2.97;1.40;;;29.20;99.90;;;;;;5054950;28;20052;-53
2023/05/28 01:22:05;;;;;;;3.63;1.20;;;29.20;99.90;;;;;;5045232;28;20021;-45
2023/05/28 01:24:39;;;;;;;2.03;0.80;;;29.20;99.90;;;;;;5058870;28;20365;-55
2023/05/28 01:27:06;;;;;;;1.90;0.90;;;29.20;99.90;;;;;;5064775;28;20025;-49
2023/05/28 01:29:33;;;;;;;3.30;0.90;;;29.20;99.90;;;;;;5058298;28;20036;-50
2023/05/28 01:32:00;;;;;;;1.50;1.02;;;29.10;99.90;;;;;;5062097;28;20209;-50
2023/05/28 01:34:28;;;;;;;2.45;0.90;;;29.10;99.90;;;;;;5059224;28;20033;-44
2023/05/28 01:37:01;;;;;;;3.47;0.95;;;29.00;99.90;;;;;;5052419;28;20310;-45
2023/05/28 01:39:32;;;;;;;2.42;0.63;;;29.00;99.90;;;;;;5055072;28;20225;-45
2023/05/28 01:42:01;;;;;;;1.50;0.60;;;29.10;99.90;;;;;;5046765;28;20366;-43
2023/05/28 01:44:29;;;;;;;4.70;1.23;;;29.00;99.90;;;;;;5047114;28;20338;-50
2023/05/28 01:46:56;;;;;;;4.32;1.58;;;29.10;99.90;;;;;;5050792;28;20089;-47
2023/05/28 01:49:23;;;;;;;6.57;3.50;;;29.20;99.90;;;;;;5056531;28;20057;-44
2023/05/28 01:51:52;;;;;;;6.63;3.15;;;29.20;99.90;;;;;;5053944;28;20021;-42
2023/05/28 01:54:21;;;;;;;4.63;3.15;;;29.20;99.90;;;;;;5045568;28;20044;-44
2023/05/28 01:56:48;;;;;;;5.32;2.80;;;29.20;99.90;;;;;;5044396;28;20052;-42
2023/05/28 01:59:14;;;;;;;5.35;2.47;;;29.20;99.90;;;;;;5044067;28;20045;-47
2023/05/28 02:01:41;;;;;;;3.20;2.05;;;29.10;99.90;;;;;;5044376;28;20036;-41
2023/05/28 02:04:07;;;;;;;3.72;1.92;;;28.90;99.90;;;;;;5043122;28;20258;-41
2023/05/28 02:06:35;;;;;;;3.90;1.98;;;29.00;99.90;;;;;;5049799;28;20020;-48
2023/05/28 02:09:02;;;;;;;7.30;2.22;;;29.00;99.90;;;;;;5049187;28;20038;-45
2023/05/28 02:11:29;;;;;;;4.35;2.40;;;29.10;99.90;;;;;;5044062;28;20059;-41
2023/05/28 02:13:55;;;;;;;4.10;1.90;;;29.10;99.90;;;;;;5058256;28;20025;-50
2023/05/28 02:16:22;;;;;;;8.13;2.35;;;29.10;99.90;;;;;;5052680;28;20033;-54
2023/05/28 02:18:51;;;;;;;3.83;2.03;;;29.20;99.90;;;;;;5043806;28;20213;-48
2023/05/28 02:21:18;;;;;;;4.97;2.00;;;29.40;99.90;;;;;;5044047;28;20104;-50
2023/05/28 02:23:47;;;;;;;5.60;1.88;;;29.70;99.90;;;;;;5044780;28;20336;-48
2023/05/28 02:26:13;;;;;;;4.28;1.70;;;29.70;99.90;;;;;;5053816;28;20037;-49
2023/05/28 02:28:44;;;;;;;6.88;1.90;;;29.70;99.90;;;;;;5043836;28;20019;-46
2023/05/28 02:31:11;;;;;;;2.67;1.70;;;29.70;99.90;;;;;;5043960;28;20033;-50
2023/05/28 02:33:39;;;;;;;7.88;2.05;;;29.60;99.90;;;;;;5043822;28;20034;-50
2023/05/28 02:36:06;;;;;;;6.05;2.30;;;29.60;99.90;;;;;;5044317;28;20017;-50
2023/05/28 02:38:33;;;;;;;4.93;2.15;;;29.60;99.90;;;;;;5044128;28;20037;-53
2023/05/28 02:41:00;;;;;;;6.00;2.03;;;29.50;99.90;;;;;;5044328;28;20321;-48
2023/05/28 02:43:26;;;;;;;5.60;2.05;;;29.40;99.90;;;;;;5054770;28;20029;-49
2023/05/28 02:45:53;;;;;;;4.38;1.95;;;29.40;99.90;;;;;;5057259;28;20209;-55
2023/05/28 02:48:19;;;;;;;3.17;1.95;;;29.40;99.90;;;;;;5046472;28;20045;-47
2023/05/28 02:50:46;;;;;;;8.70;2.30;;;29.40;99.90;;;;;;5044084;28;20025;-49
2023/05/28 02:53:12;;;;;;;6.43;2.53;;;29.20;99.90;;;;;;5043794;28;20029;-56
2023/05/28 02:55:39;;;;;;;9.95;5.20;;;29.30;99.90;;;;;;5044375;28;20029;-53
2023/05/28 02:58:05;;;;;;;10.05;7.07;;;29.20;99.90;;;;;;5043603;28;20017;-46
2023/05/28 03:00:33;;;;;;;11.15;6.80;;;29.20;99.90;;;;;;5043592;28;20030;-52
2023/05/28 03:02:59;;;;;;;10.77;7.03;;;29.10;99.90;;;;;;5043459;28;20036;-53
2023/05/28 03:05:27;;;;;;;9.65;6.30;;;29.10;99.90;;;;;;5043892;28;20048;-51
2023/05/28 03:07:53;;;;;;;8.02;5.90;;;29.10;99.90;;;;;;5043557;28;20180;-54
2023/05/28 03:10:20;;;;;;;6.82;5.15;;;29.10;99.90;;;;;;5043262;28;20095;-46
2023/05/28 03:12:46;;;;;;;6.47;4.80;;;29.10;99.90;;;;;;5043559;28;20020;-50
2023/05/28 03:15:14;;;;;;;8.32;4.38;;;29.00;99.90;;;;;;5043405;28;20033;-46
2023/05/28 03:17:40;;;;;;;4.88;4.25;;;28.90;99.90;;;;;;5043331;28;20025;-51
2023/05/28 03:20:10;;;;;;;6.07;2.70;;;29.00;99.90;;;;;;5043739;28;20021;-48
2023/05/28 03:22:40;;;;;;;6.38;2.50;;;28.90;99.90;;;;;;5043451;28;20040;-50
2023/05/28 03:25:08;;;;;;;6.53;2.10;;;28.90;99.90;;;;;;5043493;28;20037;-47
2023/05/28 03:27:34;;;;;;;6.35;1.50;;;28.90;99.90;;;;;;5043435;28;20110;-53
2023/05/28 03:30:02;;;;;;;4.15;1.48;;;28.80;99.90;;;;;;5043186;28;20080;-52
2023/05/28 03:32:29;;;;;;;5.63;1.33;;;28.90;99.90;;;;;;5043121;28;20033;-51
2023/05/28 03:34:56;;;;;;;3.95;0.95;;;28.80;99.90;;;;;;5043514;28;20025;-50
2023/05/28 03:37:24;;;;;;;3.85;1.00;;;28.80;99.90;;;;;;5048132;28;20041;-53
2023/05/28 03:39:50;;;;;;;3.70;1.00;;;28.80;99.90;;;;;;5063287;28;20029;-48
2023/05/28 03:42:17;;;;;;;2.22;0.60;;;28.90;99.90;;;;;;5063389;28;20029;-45
2023/05/28 03:44:43;;;;;;;3.50;0.80;;;28.80;99.90;;;;;;5049579;28;20029;-47
2023/05/28 03:47:10;;;;;;;5.43;1.10;;;28.80;99.90;;;;;;5045212;28;20036;-54
2023/05/28 03:49:36;;;;;;;4.82;0.73;;;28.70;99.90;;;;;;5047011;28;20061;-48
2023/05/28 03:52:03;;;;;;;3.15;0.73;;;28.70;99.90;;;;;;5046895;28;20017;-45
2023/05/28 03:54:29;;;;;;;6.00;1.00;;;28.80;99.90;;;;;;5047109;28;20033;-50
2023/05/28 03:56:56;;;;;;;3.80;0.50;;;28.80;99.90;;;;;;5055076;28;20067;-44
2023/05/28 03:59:22;;;;;;;2.83;0.60;;;28.80;99.90;;;;;;5049418;28;20043;-48
2023/05/28 04:01:49;;;;;;;2.20;0.60;;;28.80;99.90;;;;;;5051113;28;20040;-52
2023/05/28 04:04:15;;;;;;;5.93;0.88;;;28.80;99.90;;;;;;5066777;28;20200;-48
2023/05/28 04:06:42;;;;;;;2.03;0.40;;;28.80;99.90;;;;;;5066550;28;20020;-51
2023/05/28 04:09:09;;;;;;;3.72;0.60;;;28.80;99.90;;;;;;5066397;28;20033;-47
2023/05/28 04:11:37;;;;;;;4.20;0.50;;;28.80;99.90;;;;;;5066298;28;20057;-44
2023/05/28 04:14:03;;;;;;;4.70;0.60;;;28.70;99.90;;;;;;5066016;28;20021;-45
2023/05/28 04:16:31;;;;;;;3.47;0.40;;;28.80;99.90;;;;;;5059323;28;20037;-46
2023/05/28 04:19:00;;;;;;;4.18;0.43;;;28.60;99.90;;;;;;5059942;28;20048;-48
2023/05/28 04:21:29;;;;;;;1.23;0.38;;;28.70;99.90;;;;;;5066244;28;20244;-49
2023/05/28 04:23:57;;;;;;;4.20;0.50;;;28.70;99.90;;;;;;5057655;28;20056;-53
2023/05/28 04:26:23;;;;;;;3.92;0.55;;;28.70;99.90;;;;;;5050630;28;20039;-53
2023/05/28 04:28:52;;;;;;;4.57;0.30;;;28.60;99.90;;;;;;5061995;28;20032;-45
2023/05/28 04:31:19;;;;;;;2.67;0.20;;;28.50;99.90;;;;;;5065932;28;20082;-48
2023/05/28 04:33:46;;;;;;;1.55;0.30;;;28.60;99.90;;;;;;5066005;28;20336;-50
2023/05/28 04:36:15;;;;;;;1.75;0.45;;;28.50;99.90;;;;;;5064375;28;20087;-48
2023/05/28 04:38:42;;;;;;;3.42;0.40;;;28.50;99.90;;;;;;5053114;28;20075;-46
2023/05/28 04:41:09;;;;;;;3.53;0.50;;;28.50;99.90;;;;;;5063484;28;20240;-53
2023/05/28 04:43:36;;;;;;;2.42;0.40;;;28.40;99.90;;;;;;5065863;28;20024;-49
2023/05/28 04:46:03;;;;;;;6.80;0.50;;;28.50;99.90;;;;;;5066149;28;20032;-50
2023/05/28 04:48:35;;;;;;;4.25;0.30;;;28.50;99.90;;;;;;5065647;28;20041;-46
2023/05/28 04:51:07;;;;;;;4.32;0.40;;;28.40;99.90;;;;;;5065780;28;20040;-45
2023/05/28 04:53:34;;;;;;;5.97;0.35;;;28.40;99.90;;;;;;5065786;28;20033;-44
2023/05/28 04:56:01;;;;;;;5.53;0.40;;;28.40;99.90;;;;;;5066081;28;20025;-47
2023/05/28 04:58:27;;;;;;;3.05;0.57;;;28.40;99.90;;;;;;5057406;28;20022;-47
2023/05/28 05:00:55;;;;;;;3.25;0.50;;;28.40;99.90;;;;;;5053191;28;20056;-46
2023/05/28 05:03:22;;;;;;;5.32;0.50;;;28.40;99.90;;;;;;5045508;28;20088;-47
2023/05/28 05:05:48;;;;;;;4.18;0.40;;;28.40;99.90;;;;;;5053009;28;20115;-47
2023/05/28 05:08:15;;;;;;;6.82;0.57;;;28.40;99.90;;;;;;5048137;28;20036;-45
2023/05/28 05:10:41;;;;;;;4.80;0.30;;;28.50;99.90;;;;;;5045300;28;20060;-45
2023/05/28 05:13:08;;;;;;;3.15;0.57;;;28.40;99.90;;;;;;5045345;28;20025;-47
2023/05/28 05:15:34;;;;;;;3.85;0.40;;;28.50;99.90;;;;;;5045469;28;20072;-47
2023/05/28 05:18:01;;;;;;;2.35;0.40;;;28.30;99.90;;;;;;5045250;28;20345;-43
2023/05/28 05:20:28;;;;;;;2.28;0.35;;;28.30;99.90;;;;;;5045498;28;20025;-45
2023/05/28 05:22:55;;;;;;;4.35;0.50;;;28.30;99.90;;;;;;5044726;28;20033;-47
2023/05/28 05:25:21;;;;;;;4.28;0.40;;;28.30;99.90;;;;;;5045361;28;20036;-46
2023/05/28 05:27:51;;;;;;;3.92;0.30;;;28.30;99.90;;;;;;5045029;28;20055;-47
2023/05/28 05:30:18;;;;;;;3.60;0.38;;;28.30;99.90;;;;;;5045088;28;20072;-46
2023/05/28 05:32:44;;;;;;;7.53;0.73;;;28.20;99.90;;;;;;5045038;28;20025;-49
2023/05/28 05:35:11;;;;;;;4.97;0.57;;;28.30;99.90;;;;;;5056038;28;20018;-49
2023/05/28 05:37:38;;;;;;;3.63;0.52;;;28.30;99.90;;;;;;5044410;28;20033;-46
2023/05/28 05:40:05;;;;;;;3.13;0.40;;;28.30;99.90;;;;;;5045082;28;20021;-46
2023/05/28 05:42:31;;;;;;;3.05;0.47;;;28.30;99.90;;;;;;5044732;28;20029;-47
2023/05/28 05:44:58;;;;;;;4.85;0.60;;;28.20;99.90;;;;;;5044789;28;20105;-52
2023/05/28 05:47:25;;;;;;;4.07;0.40;;;28.20;99.90;;;;;;5044795;28;20041;-47
2023/05/28 05:49:52;;;;;;;3.20;0.40;;;28.20;99.90;;;;;;5044722;28;20084;-46
2023/05/28 05:52:18;;;;;;;1.73;0.40;;;28.20;99.90;;;;;;5044083;28;20029;-48
2023/05/28 05:54:45;;;;;;;4.85;0.68;;;28.20;99.90;;;;;;5044832;28;20084;-50
2023/05/28 05:57:11;;;;;;;2.65;0.40;;;28.20;99.90;;;;;;5044594;28;20017;-51
2023/05/28 05:59:38;;;;;;;3.17;0.30;;;28.30;99.90;;;;;;5044460;28;20079;-51
2023/05/28 06:02:05;;;;;;;3.40;0.50;;;28.20;99.90;;;;;;5044420;28;20045;-46
2023/05/28 06:04:33;;;;;;;3.85;0.47;;;28.20;99.90;;;;;;5044471;28;20021;-45
2023/05/28 06:07:04;;;;;;;1.98;0.30;;;28.20;99.90;;;;;;5043808;28;20037;-47
2023/05/28 06:09:31;;;;;;;2.25;0.50;;;28.20;99.90;;;;;;5043917;28;20030;-45
2023/05/28 06:11:58;;;;;;;3.42;0.38;;;28.20;99.90;;;;;;5044268;28;20052;-46
2023/05/28 06:14:26;;;;;;;4.00;0.50;;;28.20;99.90;;;;;;5044159;28;20021;-44
2023/05/28 06:16:53;;;;;;;3.33;0.30;;;28.20;99.90;;;;;;5044210;28;20380;-45
2023/05/28 06:19:19;;;;;;;6.10;0.50;;;28.20;99.90;;;;;;5044174;28;20040;-46
2023/05/28 06:21:46;;;;;;;6.03;0.60;;;28.20;99.90;;;;;;5043561;28;20029;-48
2023/05/28 06:24:12;;;;;;;3.92;0.40;;;28.20;99.90;;;;;;5044097;28;20096;-46
2023/05/28 06:26:39;;;;;;;5.97;0.70;;;28.20;99.90;;;;;;5044025;28;20025;-49
2023/05/28 06:29:07;;;;;;;6.20;0.57;;;28.20;99.90;;;;;;5043879;28;20234;-47
2023/05/28 06:31:34;;;;;;;4.78;0.40;;;28.20;99.90;;;;;;5054774;28;20214;-48
2023/05/28 06:34:02;;;;;;;7.15;0.68;;;28.20;99.90;;;;;;5063964;28;20075;-45
2023/05/28 06:36:29;;;;;;;7.10;0.70;;;28.20;99.90;;;;;;5063705;28;20075;-43
2023/05/28 06:38:55;;;;;;;6.15;0.60;;;28.20;99.90;;;;;;5063821;28;20029;-47
2023/05/28 06:41:21;;;;;;;5.80;0.55;;;28.20;99.90;;;;;;5064047;28;20033;-45
2023/05/28 06:43:48;;;;;;;8.00;0.80;;;28.20;99.90;;;;;;5063635;28;20071;-48
2023/05/28 06:46:15;;;;;;;3.55;0.43;;;28.10;99.90;;;;;;5063875;28;20052;-50
2023/05/28 06:48:42;;;;;;;7.68;0.50;;;28.10;99.90;;;;;;5063630;28;20031;-50
2023/05/28 06:51:09;;;;;;;3.65;0.68;;;28.10;99.90;;;;;;5064020;28;20067;-49
2023/05/28 06:53:35;;;;;;;7.25;0.57;;;28.00;99.90;;;;;;5063615;28;20052;-43
2023/05/28 06:56:02;;;;;;;6.00;0.60;;;28.10;99.90;;;;;;5064084;28;20017;-48
2023/05/28 06:58:28;;;;;;;5.45;0.70;;;28.10;99.90;;;;;;5063612;28;20415;-44
2023/05/28 07:00:55;;;;;;;7.20;0.50;;;28.00;99.90;;;;;;5063932;28;20055;-43
2023/05/28 07:03:21;;;;;;;6.00;0.68;;;27.90;99.90;;;;;;5063585;28;20021;-48
2023/05/28 07:05:48;;;;;;;8.45;0.98;;;27.90;99.90;;;;;;5063174;28;20040;-46
2023/05/28 07:08:15;;;;;;;6.60;0.65;;;27.90;99.90;;;;;;5063632;28;20092;-43
2023/05/28 07:10:41;;;;;;;4.57;0.50;;;27.90;99.90;;;;;;5063424;28;20223;-43
2023/05/28 07:13:08;;;;;;;8.30;0.70;;;27.90;99.90;;;;;;5063601;28;20033;-44
2023/05/28 07:15:35;;;;;;;9.13;0.82;;;27.90;99.90;;;;;;5063755;28;20029;-48
2023/05/28 07:18:01;;;;;;;10.43;0.90;;;27.90;99.90;;;;;;5063446;28;20029;-43
2023/05/28 07:20:28;;;;;;;3.88;0.50;;;28.00;99.90;;;;;;5063430;28;20033;-44
2023/05/28 07:22:56;;;;;;;6.88;0.55;;;27.80;99.90;;;;;;5060068;28;20100;-45
2023/05/28 07:25:22;;;;;;;6.60;0.60;;;27.90;99.90;;;;;;5050531;28;20075;-49
2023/05/28 07:27:49;;;;;;;8.05;0.73;;;27.90;99.90;;;;;;5047285;28;20348;-45
2023/05/28 07:30:18;;;;;;;8.27;0.68;;;27.80;99.90;;;;;;5047375;28;20029;-43
2023/05/28 07:32:44;;;;;;;2.83;0.35;;;27.80;99.90;;;;;;5047454;28;20026;-46
2023/05/28 07:35:11;;;;;;;9.15;0.60;;;27.90;99.90;;;;;;5047033;28;20033;-46
2023/05/28 07:37:38;;;;;;;8.57;0.57;;;27.80;99.90;;;;;;5047039;28;20092;-43
2023/05/28 07:40:05;;;;;;;6.25;0.55;;;27.90;99.90;;;;;;5047364;28;20025;-43
2023/05/28 07:42:32;;;;;;;5.75;0.60;;;27.90;99.90;;;;;;5047052;28;20033;-43
2023/05/28 07:44:58;;;;;;;7.53;0.57;;;27.90;99.90;;;;;;5046764;28;20105;-48
2023/05/28 07:47:25;;;;;;;4.03;0.40;;;27.90;99.90;;;;;;5046960;28;20088;-47
2023/05/28 07:49:52;;;;;;;5.00;0.60;;;27.90;99.90;;;;;;5046670;28;20029;-44
2023/05/28 07:52:19;;;;;;;9.90;1.15;;;27.90;99.90;;;;;;5046786;28;20360;-46
2023/05/28 07:54:45;;;;;;;7.50;1.10;;;27.80;99.90;;;;;;5046944;28;20045;-47
2023/05/28 07:57:14;;;;;;;5.85;1.50;;;27.90;99.90;;;;;;5046942;28;20037;-46
2023/05/28 07:59:42;;;;;;;7.25;1.35;;;27.90;99.90;;;;;;5046764;28;20029;-46
2023/05/28 08:02:08;;;;;;;6.18;1.90;;;27.90;99.90;;;;;;5046703;28;20029;-47
2023/05/28 08:04:35;;;;;;;9.25;1.67;;;27.90;99.90;;;;;;5046477;28;20040;-44
2023/05/28 08:07:01;;;;;;;8.60;1.77;;;27.90;99.90;;;;;;5046505;28;20372;-45
2023/05/28 08:09:27;;;;;;;8.95;1.30;;;27.90;99.90;;;;;;5046388;28;20085;-50
2023/05/28 08:11:54;;;;;;;6.70;1.10;;;27.90;99.90;;;;;;5046660;28;20063;-50
2023/05/28 08:14:21;;;;;;;5.70;0.82;;;28.00;99.90;;;;;;5046499;28;20045;-53
2023/05/28 08:16:47;;;;;;;5.13;0.88;;;27.90;99.90;;;;;;5046447;28;20045;-50
2023/05/28 08:19:14;;;;;;;8.38;1.02;;;28.00;99.90;;;;;;5046238;28;20064;-46
2023/05/28 08:21:41;;;;;;;7.75;0.90;;;28.00;99.90;;;;;;5046375;28;20120;-52
2023/05/28 08:24:10;;;;;;;6.03;0.70;;;27.90;99.90;;;;;;5046241;28;20295;-45
2023/05/28 08:26:37;;;;;;;5.07;0.75;;;27.90;99.90;;;;;;5046289;28;20084;-46
2023/05/28 08:29:04;;;;;;;5.38;0.70;;;28.00;99.90;;;;;;5046137;28;20029;-51
2023/05/28 08:31:34;;;;;;;5.32;0.90;;;27.90;99.90;;;;;;5046058;28;20029;-48
2023/05/28 08:34:01;;;;;;;6.35;1.30;;;27.90;99.90;;;;;;5050410;28;20029;-48
2023/05/28 08:36:27;;;;;;;7.70;1.02;;;27.90;99.90;;;;;;5045927;28;20313;-52
2023/05/28 08:38:54;;;;;;;6.97;1.20;;;27.90;99.90;;;;;;5046212;28;20383;-45
2023/05/28 08:41:21;;;;;;;4.28;0.80;;;28.00;99.90;;;;;;5046260;28;20147;-50
2023/05/28 08:43:48;;;;;;;10.90;1.05;;;28.00;99.90;;;;;;5045777;28;20092;-54
2023/05/28 08:46:15;;;;;;;4.68;0.68;;;27.90;99.90;;;;;;5045926;28;20096;-45
2023/05/28 08:48:42;;;;;;;5.03;0.70;;;28.00;99.90;;;;;;5045413;28;20309;-43
2023/05/28 08:51:11;;;;;;;8.13;0.95;;;27.90;99.90;;;;;;5046253;28;20305;-49
2023/05/28 08:53:43;;;;;;;10.63;1.00;;;28.00;99.90;;;;;;5045712;28;20034;-47
2023/05/28 08:56:10;;;;;;;7.13;0.82;;;27.90;99.90;;;;;;5046184;28;20029;-46
2023/05/28 08:58:40;;;;;;;8.00;0.70;;;27.90;99.90;;;;;;5045504;28;20344;-47
2023/05/28 09:01:10;;;;;;;5.22;0.70;;;27.90;99.90;;;;;;5046115;28;20037;-42
2023/05/28 09:03:42;;;;;;;13.50;0.80;;;28.00;99.90;;;;;;5045232;28;20100;-49
2023/05/28 09:06:09;;;;;;;5.35;0.68;;;27.90;99.90;;;;;;5045632;28;20031;-45
2023/05/28 09:08:36;;;;;;;7.35;0.60;;;27.90;99.90;;;;;;5045352;28;20032;-47
2023/05/28 09:11:14;;;;;;;7.68;0.88;;;27.90;99.90;;;;;;5045359;28;20099;-49
2023/05/28 09:13:45;;;;;;;6.75;0.82;;;27.90;99.90;;;;;;5045341;28;20075;-44
2023/05/28 09:16:20;;;;;;;7.50;0.95;;;27.90;99.90;;;;;;5045840;28;20305;-50
2023/05/28 09:18:50;;;;;;;6.88;0.75;;;27.80;99.90;;;;;;5044739;28;20382;-45
2023/05/28 09:21:19;;;;;;;9.10;1.13;;;27.80;99.90;;;;;;5045214;28;20207;-47
2023/05/28 09:23:50;;;;;;;10.05;0.98;;;27.80;99.90;;;;;;5045164;28;20032;-52
2023/05/28 09:26:19;;;;;;;7.10;0.83;;;27.80;99.90;;;;;;5045223;28;20337;-45
2023/05/28 09:28:46;;;;;;;5.03;0.55;;;27.90;99.90;;;;;;5044960;28;20033;-46
2023/05/28 09:31:14;;;;;;;7.47;0.70;;;27.80;99.90;;;;;;5045181;28;20017;-45
2023/05/28 09:33:47;;;;;;;6.85;0.90;;;27.90;99.90;;;;;;5044683;28;20033;-46
2023/05/28 09:36:17;;;;;;;4.03;0.60;;;27.90;99.90;;;;;;5044943;28;20033;-45
2023/05/28 09:38:44;;;;;;;6.05;0.60;;;27.90;99.90;;;;;;5044811;28;20044;-49
2023/05/28 09:41:22;;;;;;;7.30;0.90;;;27.90;99.90;;;;;;5045336;28;20205;-49
2023/05/28 09:44:04;;;;;;;6.85;0.70;;;27.90;99.90;;;;;;5044310;28;20030;-51
2023/05/28 09:46:35;;;;;;;4.85;0.70;;;27.80;99.90;;;;;;5044561;28;20029;-48
2023/05/28 09:49:03;;;;;;;5.72;0.50;;;27.80;99.90;;;;;;5054562;28;20044;-49
2023/05/28 09:51:31;;;;;;;10.80;0.98;;;27.90;99.90;;;;;;5044759;28;20033;-47
2023/05/28 09:54:00;;;;;;;6.82;0.75;;;27.90;99.90;;;;;;5044538;28;20017;-47
2023/05/28 09:56:31;;;;;;;6.22;0.80;;;27.90;99.90;;;;;;5044463;28;20049;-44
2023/05/28 09:59:02;;;;;;;6.90;0.65;;;27.80;99.90;;;;;;5044515;28;20070;-50
2023/05/28 10:01:40;;;;;;;12.50;0.80;;;27.90;99.90;;;;;;5044375;28;20221;-48
2023/05/28 10:04:09;;;;;;;5.63;0.63;;;27.80;99.90;;;;;;5044107;28;20045;-45
2023/05/28 10:06:40;;;;;;;5.28;0.57;;;27.80;99.90;;;;;;5044358;28;20037;-44
2023/05/28 10:09:08;;;;;;;8.45;0.70;;;27.80;99.90;;;;;;5044168;28;20332;-44
2023/05/28 10:11:47;;;;;;;12.48;1.00;;;27.80;99.90;;;;;;5044159;28;20057;-49
2023/05/28 10:14:14;;;;;;;8.27;0.80;;;27.90;99.90;;;;;;5044394;28;20022;-50
2023/05/28 10:16:40;;;;;;;6.20;0.60;;;27.80;99.90;;;;;;5044079;28;20263;-47
2023/05/28 10:19:07;;;;;;;6.43;0.60;;;27.80;99.90;;;;;;5043959;28;20314;-46
2023/05/28 10:21:35;;;;;;;9.55;0.80;;;27.90;99.90;;;;;;5044106;28;20068;-48
2023/05/28 10:24:04;;;;;;;11.00;0.80;;;27.80;99.90;;;;;;5043952;28;20021;-45
2023/05/28 10:26:31;;;;;;;3.97;0.35;;;27.80;99.90;;;;;;5044068;28;20340;-46
2023/05/28 10:28:58;;;;;;;9.45;1.00;;;27.90;99.90;;;;;;5048220;28;20080;-44
2023/05/28 10:31:25;;;;;;;11.18;1.08;;;27.90;99.90;;;;;;5048384;28;20029;-44
2023/05/28 10:33:52;;;;;;;7.45;0.80;;;27.80;99.90;;;;;;5063531;28;20032;-44
2023/05/28 10:36:18;;;;;;;9.90;1.10;;;27.90;99.90;;;;;;5063954;28;20104;-45
2023/05/28 10:38:52;;;;;;;13.02;1.08;;;27.90;99.90;;;;;;5063680;28;20021;-46
2023/05/28 10:41:23;;;;;;;8.48;0.80;;;27.90;99.90;;;;;;5063838;28;20043;-44
2023/05/28 10:43:50;;;;;;;10.68;1.13;;;27.80;99.90;;;;;;5063577;28;20025;-52
2023/05/28 10:46:35;;;;;;;13.55;1.10;;;28.00;99.90;;;;;;5063715;28;20039;-49
2023/05/28 10:49:15;;;;;;;6.55;1.08;;;27.90;99.90;;;;;;5063505;28;20249;-51
2023/05/28 10:52:01;;;;;;;7.45;1.00;;;28.00;99.90;;;;;;5063626;28;20313;-49
2023/05/28 10:54:35;;;;;;;7.78;1.00;;;27.90;99.90;;;;;;5063864;28;20029;-48
2023/05/28 10:57:19;;;;;;;10.00;1.35;;;27.90;99.90;;;;;;5065841;28;20070;-50
2023/05/28 10:59:52;;;;;;;7.85;1.23;;;27.90;99.90;;;;;;5057467;28;20092;-47
2023/05/28 11:02:32;;;;;;;6.80;1.92;;;27.90;99.90;;;;;;5047383;28;20029;-50
2023/05/28 11:05:01;;;;;;;8.00;2.30;;;27.90;99.90;;;;;;5047526;28;20097;-49
2023/05/28 11:07:38;;;;;;;10.10;2.70;;;28.00;99.90;;;;;;5047771;28;20052;-48
2023/05/28 11:10:10;;;;;;;12.23;2.88;;;28.00;99.90;;;;;;5047403;28;20430;-48
2023/05/28 11:12:39;;;;;;;10.73;2.63;;;28.00;99.90;;;;;;5058362;28;20109;-46
2023/05/28 11:15:10;;;;;;;9.77;2.35;;;28.10;99.90;;;;;;5067808;28;20025;-50
2023/05/28 11:17:44;;;;;;;9.23;2.58;;;28.00;99.90;;;;;;5067015;28;20080;-48
2023/05/28 11:20:24;;;;;;;7.95;2.40;;;28.20;99.90;;;;;;5067693;28;20052;-52
2023/05/28 11:22:51;;;;;;;9.88;2.28;;;28.20;99.90;;;;;;5067164;28;20088;-47
2023/05/28 11:25:21;;;;;;;8.57;2.20;;;28.20;99.90;;;;;;5067656;28;20028;-47
2023/05/28 11:27:50;;;;;;;12.25;2.30;;;28.30;99.90;;;;;;5067262;28;20063;-45
2023/05/28 11:30:18;;;;;;;5.40;2.25;;;28.30;99.90;;;;;;5067372;28;20029;-46
2023/05/28 11:32:46;;;;;;;9.07;2.50;;;28.50;99.90;;;;;;5048694;28;20033;-44
2023/05/28 11:35:17;;;;;;;6.15;2.40;;;28.50;99.90;;;;;;5052141;28;20076;-46
2023/05/28 11:37:44;;;;;;;8.95;2.47;;;28.60;99.90;;;;;;5047003;28;20099;-42
2023/05/28 11:40:14;;;;;;;6.45;1.65;;;28.60;99.90;;;;;;5047385;28;20194;-44
2023/05/28 11:42:43;;;;;;;13.77;1.70;;;28.60;99.40;;;;;;5047032;28;20025;-45
2023/05/28 11:45:11;;;;;;;6.75;1.55;;;28.60;99.10;;;;;;5047265;28;20383;-44
2023/05/28 11:47:38;;;;;;;8.90;1.67;;;28.70;98.90;;;;;;5046631;28;20037;-51
2023/05/28 11:50:15;;;;;;;8.15;1.58;;;28.70;98.60;;;;;;5047090;28;20021;-53
2023/05/28 11:52:43;;;;;;;6.30;1.30;;;28.70;98.30;;;;;;5046871;28;20042;-50
2023/05/28 11:55:10;;;;;;;6.20;1.38;;;28.80;98.20;;;;;;5047214;28;20013;-48
2023/05/28 11:57:43;;;;;;;5.53;1.20;;;28.80;97.80;;;;;;5046653;28;20044;-51
2023/05/28 12:00:15;;;;;;;4.53;1.10;;;28.90;97.60;;;;;;5046949;28;20205;-47
2023/05/28 12:02:50;;;;;;;8.70;1.30;;;28.80;97.50;;;;;;5046355;28;20037;-51
2023/05/28 12:05:17;;;;;;;5.45;1.02;;;28.90;97.30;;;;;;5059355;28;20029;-49
2023/05/28 12:07:49;;;;;;;4.85;0.98;;;28.90;97.00;;;;;;5052495;28;20029;-45
2023/05/28 12:10:19;;;;;;;4.20;0.90;;;28.90;96.90;;;;;;5057755;28;20045;-48
2023/05/28 12:12:55;;;;;;;5.35;1.00;;;29.00;97.00;;;;;;5052730;28;20278;-46
2023/05/28 12:15:28;;;;;;;8.10;1.25;;;28.90;96.60;;;;;;5066424;28;20040;-51
2023/05/28 12:17:57;;;;;;;4.35;0.88;;;29.00;96.60;;;;;;5066174;28;20033;-50
2023/05/28 12:20:23;;;;;;;6.50;0.90;;;29.00;96.50;;;;;;5066755;28;20091;-45
2023/05/28 12:23:07;;;;;;;5.78;1.30;;;29.00;96.50;;;;;;5066074;28;20037;-51
2023/05/28 12:25:43;;;;;;;9.75;1.60;;;29.00;96.40;;;;;;5066449;28;20099;-53
2023/05/28 12:28:14;;;;;;;5.50;1.30;;;29.10;96.20;;;;;;5066058;28;20082;-45
2023/05/28 12:30:42;;;;;;;5.35;1.10;;;29.20;96.40;;;;;;5066750;28;20316;-50
2023/05/28 12:33:10;;;;;;;7.13;1.30;;;29.20;96.20;;;;;;5065701;28;20075;-54
2023/05/28 12:35:37;;;;;;;4.80;1.73;;;29.10;96.10;;;;;;5066245;28;20253;-47
2023/05/28 12:38:05;;;;;;;4.07;1.35;;;29.20;96.10;;;;;;5065990;28;20033;-42
2023/05/28 12:40:31;;;;;;;3.88;1.00;;;29.10;96.00;;;;;;5066279;28;20321;-48
2023/05/28 12:42:58;;;;;;;5.47;1.30;;;29.20;95.90;;;;;;5065738;28;20075;-44
2023/05/28 12:45:24;;;;;;;4.28;1.20;;;29.20;95.90;;;;;;5066189;28;20103;-44
2023/05/28 12:47:51;;;;;;;6.10;0.90;;;29.10;95.80;;;;;;5065428;28;20039;-46
2023/05/28 12:50:17;;;;;;;5.40;1.13;;;29.20;95.80;;;;;;5065832;28;20031;-42